createdAt,value
2019-02-09T00:01:51.826Z,0.17
2019-02-09T00:04:21.779Z,0.10
2019-02-09T00:06:52.006Z,-0.08
2019-02-09T00:09:22.810Z,-0.09
2019-02-09T00:11:52.854Z,-0.22
2019-02-09T00:14:23.001Z,-0.21
2019-02-09T00:16:52.681Z,-0.12
2019-02-09T00:19:21.922Z,0.00
2019-02-09T00:21:52.080Z,-0.21
2019-02-09T00:24:22.135Z,-0.06
2019-02-09T00:26:52.053Z,0.18
2019-02-09T00:29:22.318Z,-0.18
2019-02-09T00:31:52.525Z,-0.37
2019-02-09T00:34:22.518Z,-0.55
2019-02-09T00:36:52.500Z,-0.65
2019-02-09T00:39:22.085Z,-0.65
2019-02-09T00:41:51.722Z,-0.56
2019-02-09T00:44:20.458Z,-0.64
2019-02-09T00:46:50.324Z,-0.54
2019-02-09T00:49:21.400Z,-0.54
2019-02-09T00:51:52.487Z,-0.36
2019-02-09T00:54:22.119Z,-0.42
2019-02-09T00:56:52.067Z,-0.18
2019-02-09T00:59:22.176Z,-0.21
2019-02-09T01:01:51.942Z,-0.19
2019-02-09T01:04:22.024Z,-0.45
2019-02-09T01:06:52.062Z,-0.24
2019-02-09T01:09:22.036Z,-0.06
2019-02-09T01:11:51.639Z,-0.12
2019-02-09T01:14:21.359Z,-0.11
2019-02-09T01:16:51.840Z,0.16
2019-02-09T01:19:21.598Z,0.16
2019-02-09T01:21:50.470Z,0.16
2019-02-09T01:24:20.443Z,0.19
2019-02-09T01:26:50.082Z,0.19
2019-02-09T01:29:19.658Z,0.14
2019-02-09T01:31:49.050Z,-0.22
2019-02-09T01:34:19.143Z,-0.22
2019-02-09T01:36:48.804Z,-0.36
2019-02-09T01:39:18.308Z,-0.50
2019-02-09T01:41:48.055Z,-0.32
2019-02-09T01:44:18.100Z,-0.15
2019-02-09T01:46:47.800Z,-0.21
2019-02-09T01:49:17.686Z,-0.23
2019-02-09T01:51:46.554Z,-0.39
2019-02-09T01:54:16.313Z,-0.10
2019-02-09T01:56:46.000Z,-0.10
2019-02-09T01:59:15.619Z,-0.11
2019-02-09T02:01:45.632Z,-0.24
2019-02-09T02:04:14.529Z,-0.24
2019-02-09T02:06:44.315Z,0.32
2019-02-09T02:09:14.122Z,0.32
2019-02-09T02:11:43.792Z,0.42
2019-02-09T02:14:13.635Z,0.54
2019-02-09T02:16:43.316Z,0.65
2019-02-09T02:19:12.820Z,0.65
2019-02-09T02:21:42.517Z,0.61
2019-02-09T02:24:11.796Z,0.60
2019-02-09T02:26:41.324Z,0.79
2019-02-09T02:29:11.580Z,0.91
2019-02-09T02:31:40.604Z,1.18
2019-02-09T02:34:10.526Z,1.33
2019-02-09T02:36:39.984Z,1.33
2019-02-09T02:39:11.035Z,1.34
2019-02-09T02:41:40.968Z,1.35
2019-02-09T02:44:10.808Z,1.35
2019-02-09T02:46:41.516Z,1.42
2019-02-09T02:49:11.022Z,1.36
2019-02-09T02:51:42.098Z,1.40
2019-02-09T02:54:11.648Z,1.37
2019-02-09T02:56:41.049Z,1.36
2019-02-09T02:59:10.514Z,1.36
2019-02-09T03:01:40.082Z,1.41
2019-02-09T03:04:09.940Z,1.48
2019-02-09T03:06:39.544Z,1.54
2019-02-09T03:09:09.631Z,1.44
2019-02-09T03:11:38.926Z,1.46
2019-02-09T03:14:08.644Z,1.70
2019-02-09T03:16:39.139Z,1.58
2019-02-09T03:19:08.969Z,1.58
2019-02-09T03:21:38.517Z,1.62
2019-02-09T03:24:08.131Z,1.68
2019-02-09T03:26:37.634Z,1.72
2019-02-09T03:29:08.640Z,1.74
2019-02-09T03:31:37.934Z,1.88
2019-02-09T03:34:07.512Z,1.96
2019-02-09T03:36:37.322Z,2.86
2019-02-09T03:39:08.504Z,2.86
2019-02-09T03:41:38.033Z,2.91
2019-02-09T03:44:08.320Z,2.68
2019-02-09T03:46:38.317Z,3.09
2019-02-09T03:49:07.796Z,4.01
2019-02-09T03:51:37.556Z,5.12
2019-02-09T03:54:07.150Z,5.79
2019-02-09T03:56:36.618Z,6.19
2019-02-09T03:59:05.285Z,6.41
2019-02-09T04:01:34.812Z,6.55
2019-02-09T04:04:04.486Z,6.77
2019-02-09T04:06:34.498Z,6.73
2019-02-09T04:09:06.267Z,6.91
2019-02-09T04:11:36.140Z,6.91
2019-02-09T04:14:05.972Z,7.02
2019-02-09T04:16:35.599Z,7.05
2019-02-09T04:19:04.549Z,7.12
2019-02-09T04:21:34.057Z,7.12
2019-02-09T04:24:03.967Z,7.06
2019-02-09T04:26:33.622Z,7.17
2019-02-09T04:29:02.464Z,7.17
2019-02-09T04:31:32.105Z,7.19
2019-02-09T04:34:02.528Z,7.19
2019-02-09T04:36:32.521Z,7.20
2019-02-09T04:39:03.327Z,7.20
2019-02-09T04:41:33.976Z,7.18
2019-02-09T04:44:04.669Z,7.26
2019-02-09T04:46:34.417Z,7.16
2019-02-09T04:49:04.564Z,7.06
2019-02-09T04:51:34.321Z,7.12
2019-02-09T04:56:43.159Z,6.96
2019-02-09T04:59:13.538Z,6.69
2019-02-09T05:01:42.990Z,6.66
2019-02-09T05:04:12.963Z,6.63
2019-02-09T05:06:42.777Z,6.53
2019-02-09T05:09:13.115Z,6.59
2019-02-09T05:11:42.993Z,6.59
2019-02-09T05:14:12.721Z,6.70
2019-02-09T05:16:43.322Z,6.74
2019-02-09T05:19:13.512Z,6.53
2019-02-09T05:21:43.631Z,6.53
2019-02-09T05:24:13.525Z,6.23
2019-02-09T05:26:43.316Z,6.23
2019-02-09T05:29:13.066Z,6.17
2019-02-09T05:31:42.581Z,6.01
2019-02-09T05:34:12.523Z,5.94
2019-02-09T05:36:42.070Z,5.94
2019-02-09T05:39:12.452Z,5.90
2019-02-09T05:41:42.544Z,5.89
2019-02-09T05:44:12.019Z,5.97
2019-02-09T05:46:41.652Z,5.85
2019-02-09T05:49:11.100Z,5.86
2019-02-09T05:51:41.015Z,5.86
2019-02-09T05:54:11.052Z,5.91
2019-02-09T05:56:40.879Z,5.82
2019-02-09T05:59:11.412Z,5.76
2019-02-09T06:01:40.773Z,5.66
2019-02-09T06:04:09.815Z,5.65
2019-02-09T06:06:38.981Z,5.56
2019-02-09T06:09:08.850Z,5.56
2019-02-09T06:11:38.504Z,5.56
2019-02-09T06:14:08.124Z,5.63
2019-02-09T06:16:37.908Z,5.63
2019-02-09T06:19:07.658Z,5.59
2019-02-09T06:21:36.520Z,5.38
2019-02-09T06:24:06.520Z,5.38
2019-02-09T06:26:36.556Z,5.55
2019-02-09T06:29:06.577Z,5.55
2019-02-09T06:31:40.955Z,5.54
2019-02-09T06:35:19.686Z,5.64
2019-02-09T06:39:37.077Z,5.64
2019-02-09T06:42:13.135Z,5.88
2019-02-09T06:44:43.034Z,5.99
2019-02-09T06:47:13.835Z,5.79
2019-02-09T06:49:43.509Z,5.78
2019-02-09T06:52:13.412Z,5.76
2019-02-09T06:54:43.027Z,5.88
2019-02-09T06:57:13.015Z,5.92
2019-02-09T06:59:43.033Z,5.95
2019-02-09T07:02:15.561Z,6.01
2019-02-09T07:04:45.550Z,5.94
2019-02-09T07:07:15.325Z,5.98
2019-02-09T07:09:44.976Z,5.98
2019-02-09T07:12:14.636Z,5.96
2019-02-09T07:14:44.328Z,5.93
2019-02-09T07:17:14.325Z,5.93
2019-02-09T07:19:44.328Z,6.15
2019-02-09T07:22:14.070Z,6.01
2019-02-09T07:24:44.851Z,6.24
2019-02-09T07:27:14.825Z,6.50
2019-02-09T07:29:44.770Z,6.64
2019-02-09T07:32:14.305Z,6.39
2019-02-09T07:34:44.513Z,6.24
2019-02-09T07:37:14.712Z,6.21
2019-02-09T07:39:44.311Z,6.47
2019-02-09T07:42:13.980Z,6.64
2019-02-09T07:44:43.998Z,6.89
2019-02-09T07:47:13.909Z,6.97
2019-02-09T07:49:43.626Z,6.98
2019-02-09T07:52:12.472Z,7.04
2019-02-09T07:54:42.065Z,7.00
2019-02-09T07:57:11.775Z,7.12
2019-02-09T07:59:41.137Z,7.14
2019-02-09T08:02:10.798Z,7.25
2019-02-09T08:04:40.755Z,7.29
2019-02-09T08:07:09.490Z,7.56
2019-02-09T08:09:39.496Z,7.47
2019-02-09T08:12:09.326Z,7.48
2019-02-09T08:14:39.005Z,7.48
2019-02-09T08:17:08.898Z,7.60
2019-02-09T08:19:38.788Z,8.13
2019-02-09T08:22:09.316Z,8.52
2019-02-09T08:24:39.073Z,8.78
2019-02-09T08:27:08.635Z,8.48
2019-02-09T08:29:37.798Z,8.57
2019-02-09T08:32:12.552Z,8.70
2019-02-09T08:34:38.607Z,9.14
2019-02-09T08:37:07.539Z,8.92
2019-02-09T08:39:37.323Z,8.56
2019-02-09T08:42:07.072Z,8.56
2019-02-09T08:44:36.981Z,8.57
2019-02-09T08:47:06.931Z,8.56
2019-02-09T08:49:37.582Z,8.56
2019-02-09T08:52:06.837Z,8.64
2019-02-09T08:54:36.635Z,8.84
2019-02-09T08:57:06.028Z,11.35
2019-02-09T08:59:36.113Z,15.26
2019-02-09T09:02:05.885Z,18.98
2019-02-09T09:04:35.503Z,19.90
2019-02-09T09:07:05.360Z,21.12
2019-02-09T09:09:34.797Z,21.13
2019-02-09T09:12:04.329Z,18.64
2019-02-09T09:14:34.044Z,16.78
2019-02-09T09:17:03.788Z,14.63
2019-02-09T09:19:33.668Z,13.45
2019-02-09T09:22:02.489Z,12.59
2019-02-09T09:24:32.315Z,12.00
2019-02-09T09:27:02.150Z,12.00
2019-02-09T09:29:32.321Z,12.35
2019-02-09T09:32:02.548Z,12.57
2019-02-09T09:34:32.631Z,12.45
2019-02-09T09:37:02.654Z,12.45
2019-02-09T09:39:33.737Z,12.78
2019-02-09T09:42:03.659Z,13.64
2019-02-09T09:44:32.727Z,15.06
2019-02-09T09:47:02.311Z,16.46
2019-02-09T09:49:32.318Z,17.96
2019-02-09T09:52:02.029Z,19.34
2019-02-09T09:54:32.038Z,18.67
2019-02-09T09:57:02.492Z,17.28
2019-02-09T09:59:32.037Z,16.42
2019-02-09T10:02:02.304Z,15.57
2019-02-09T10:04:32.139Z,14.86
2019-02-09T10:07:02.024Z,13.98
2019-02-09T10:09:31.843Z,13.44
2019-02-09T10:12:01.793Z,12.88
2019-02-09T10:14:31.543Z,12.58
2019-02-09T10:17:00.706Z,12.05
2019-02-09T10:19:29.699Z,12.05
2019-02-09T10:21:59.696Z,11.93
2019-02-09T10:24:29.786Z,11.70
2019-02-09T10:26:59.578Z,11.59
2019-02-09T10:29:28.474Z,11.17
2019-02-09T10:31:58.301Z,11.02
2019-02-09T10:34:28.092Z,11.02
2019-02-09T10:36:57.802Z,11.03
2019-02-09T10:39:27.643Z,11.28
2019-02-09T10:41:57.443Z,12.15
2019-02-09T10:44:27.801Z,12.15
2019-02-09T10:46:57.619Z,12.60
2019-02-09T10:49:26.678Z,13.21
2019-02-09T10:51:56.439Z,13.84
2019-02-09T10:54:26.121Z,13.86
2019-02-09T10:56:56.044Z,13.86
2019-02-09T10:59:26.432Z,13.08
2019-02-09T11:01:56.201Z,13.00
2019-02-09T11:04:26.628Z,13.12
2019-02-09T11:06:56.583Z,12.86
2019-02-09T11:09:26.878Z,12.79
2019-02-09T11:11:56.820Z,12.79
2019-02-09T11:14:26.992Z,12.82
2019-02-09T11:16:57.140Z,12.52
2019-02-09T11:19:26.974Z,12.80
2019-02-09T11:21:57.641Z,12.81
2019-02-09T11:24:27.309Z,13.26
2019-02-09T11:26:57.061Z,13.26
2019-02-09T11:29:27.866Z,13.31
2019-02-09T11:31:58.074Z,13.63
2019-02-09T11:34:29.073Z,13.79
2019-02-09T11:36:58.640Z,13.87
2019-02-09T11:39:32.031Z,13.79
2019-02-09T11:42:02.368Z,13.64
2019-02-09T11:44:32.513Z,13.45
2019-02-09T11:47:02.311Z,13.28
2019-02-09T11:49:32.730Z,12.88
2019-02-09T11:52:02.208Z,12.89
2019-02-09T11:54:32.132Z,12.65
2019-02-09T11:57:02.165Z,12.52
2019-02-09T11:59:31.984Z,12.42
2019-02-09T12:02:01.591Z,12.33
2019-02-09T12:04:30.475Z,12.01
2019-02-09T12:07:00.310Z,11.98
2019-02-09T12:09:30.128Z,11.98
2019-02-09T12:11:59.812Z,11.85
2019-02-09T12:14:30.063Z,11.88
2019-02-09T12:17:00.019Z,11.33
2019-02-09T12:19:29.635Z,11.14
2019-02-09T12:22:00.556Z,11.26
2019-02-09T12:24:30.351Z,12.46
2019-02-09T12:27:00.144Z,12.46
2019-02-09T12:29:29.621Z,13.39
2019-02-09T12:31:58.743Z,14.08
2019-02-09T12:34:28.827Z,14.66
2019-02-09T12:36:58.827Z,14.90
2019-02-09T12:39:28.324Z,14.78
2019-02-09T12:41:58.572Z,14.83
2019-02-09T12:44:29.527Z,14.73
2019-02-09T12:46:59.526Z,13.92
2019-02-09T12:49:29.316Z,13.92
2019-02-09T12:51:59.133Z,13.37
2019-02-09T12:54:28.691Z,13.10
2019-02-09T12:56:59.170Z,12.85
2019-02-09T12:59:34.024Z,12.69
2019-02-09T13:04:27.318Z,12.22
2019-02-09T13:06:57.141Z,12.10
2019-02-09T13:09:27.058Z,12.25
2019-02-09T13:11:57.174Z,12.09
2019-02-09T13:14:27.079Z,12.03
2019-02-09T13:16:57.011Z,12.08
2019-02-09T13:19:26.567Z,12.16
2019-02-09T13:21:56.426Z,12.03
2019-02-09T13:24:26.520Z,12.03
2019-02-09T13:26:56.564Z,12.04
2019-02-09T13:29:26.540Z,11.85
2019-02-09T13:31:56.319Z,11.85
2019-02-09T13:34:25.831Z,11.92
2019-02-09T13:36:55.646Z,12.00
2019-02-09T13:39:24.512Z,11.72
2019-02-09T13:41:54.572Z,11.86
2019-02-09T13:44:23.958Z,11.86
2019-02-09T13:46:53.914Z,11.80
2019-02-09T13:49:23.662Z,11.81
2019-02-09T13:51:52.579Z,11.81
2019-02-09T13:54:22.266Z,11.89
2019-02-09T13:56:52.308Z,11.93
2019-02-09T13:59:22.116Z,11.81
2019-02-09T14:01:52.165Z,11.75
2019-02-09T14:04:21.982Z,11.69
2019-02-09T14:06:52.012Z,11.63
2019-02-09T14:09:21.964Z,11.58
2019-02-09T14:11:53.386Z,11.70
2019-02-09T14:14:23.490Z,11.82
2019-02-09T14:16:52.948Z,11.78
2019-02-09T14:19:23.249Z,11.55
2019-02-09T14:21:53.068Z,11.42
2019-02-09T14:24:22.644Z,11.48
2019-02-09T14:26:51.892Z,11.36
2019-02-09T14:29:22.306Z,11.28
2019-02-09T14:31:52.142Z,11.18
2019-02-09T14:34:21.811Z,11.09
2019-02-09T14:36:52.590Z,10.98
2019-02-09T14:39:22.633Z,10.94
2019-02-09T14:41:52.536Z,10.95
2019-02-09T14:44:22.667Z,10.86
2019-02-09T14:46:51.638Z,11.00
2019-02-09T14:49:21.027Z,11.00
2019-02-09T14:51:50.933Z,11.04
2019-02-09T14:54:21.032Z,10.87
2019-02-09T14:56:51.811Z,10.76
2019-02-09T14:59:21.911Z,10.68
2019-02-09T15:01:51.810Z,10.60
2019-02-09T15:04:22.150Z,10.66
2019-02-09T15:06:53.570Z,10.78
2019-02-09T15:09:23.622Z,10.71
2019-02-09T15:11:53.450Z,10.60
2019-02-09T15:14:23.859Z,10.52
2019-02-09T15:16:55.966Z,10.52
2019-02-09T15:19:35.715Z,10.53
2019-02-09T15:22:05.803Z,10.52
2019-02-09T15:24:36.016Z,10.47
2019-02-09T15:27:06.394Z,10.46
2019-02-09T15:29:36.589Z,10.16
2019-02-09T15:32:07.698Z,10.16
2019-02-09T15:34:37.989Z,10.22
2019-02-09T15:37:07.877Z,10.21
2019-02-09T15:39:38.171Z,10.11
2019-02-09T15:42:08.328Z,10.12
2019-02-09T15:44:38.049Z,10.03
2019-02-09T15:47:08.046Z,9.98
2019-02-09T15:49:38.078Z,9.98
2019-02-09T15:52:08.133Z,9.90
2019-02-09T15:54:38.175Z,9.87
2019-02-09T15:57:07.726Z,9.84
2019-02-09T15:59:37.777Z,9.90
2019-02-09T16:02:07.594Z,9.88
2019-02-09T16:04:36.443Z,9.79
2019-02-09T16:07:06.393Z,9.75
2019-02-09T16:09:35.779Z,9.71
2019-02-09T16:12:05.812Z,9.72
2019-02-09T16:14:35.834Z,9.65
2019-02-09T16:17:05.582Z,9.65
2019-02-09T16:19:34.631Z,9.62
2019-02-09T16:22:04.476Z,9.58
2019-02-09T16:24:34.330Z,9.55
2019-02-09T16:27:04.522Z,9.42
2019-02-09T16:29:35.312Z,9.49
2019-02-09T16:32:06.084Z,9.49
2019-02-09T16:34:37.048Z,9.53
2019-02-09T16:37:07.037Z,9.49
2019-02-09T16:39:37.094Z,9.40
2019-02-09T16:42:06.983Z,9.24
2019-02-09T16:44:36.867Z,9.11
2019-02-09T16:47:06.633Z,9.13
2019-02-09T16:49:36.314Z,9.03
2019-02-09T16:52:06.321Z,9.03
2019-02-09T16:54:35.881Z,9.04
2019-02-09T16:57:05.649Z,8.90
2019-02-09T16:59:35.597Z,8.79
2019-02-09T17:02:05.325Z,8.71
2019-02-09T17:04:35.657Z,8.71
2019-02-09T17:07:05.306Z,8.70
2019-02-09T17:09:35.495Z,8.78
2019-02-09T17:12:05.109Z,8.77
2019-02-09T17:14:34.599Z,8.71
2019-02-09T17:17:03.480Z,8.68
2019-02-09T17:19:33.523Z,8.52
2019-02-09T17:22:03.342Z,8.47
2019-02-09T17:24:33.323Z,8.47
2019-02-09T17:27:03.520Z,8.54
2019-02-09T17:29:33.525Z,8.71
2019-02-09T17:32:03.229Z,8.74
2019-02-09T17:34:40.639Z,8.74
2019-02-09T17:37:05.373Z,8.65
2019-02-09T17:39:35.465Z,8.58
2019-02-09T17:42:05.437Z,8.48
2019-02-09T17:44:35.382Z,8.50
2019-02-09T17:47:05.295Z,8.50
2019-02-09T17:49:35.115Z,8.59
2019-02-09T17:52:05.067Z,8.52
2019-02-09T17:54:34.994Z,8.55
2019-02-09T17:57:04.822Z,8.48
2019-02-09T17:59:34.602Z,8.48
2019-02-09T18:02:03.924Z,8.33
2019-02-09T18:04:33.618Z,8.21
2019-02-09T18:07:03.526Z,8.21
2019-02-09T18:09:33.480Z,8.19
2019-02-09T18:12:03.321Z,8.18
2019-02-09T18:14:33.328Z,8.18
2019-02-09T18:17:03.160Z,8.08
2019-02-09T18:19:33.167Z,8.05
2019-02-09T18:22:03.462Z,8.01
2019-02-09T18:24:33.642Z,7.81
2019-02-09T18:27:02.800Z,7.81
2019-02-09T18:29:33.031Z,7.71
2019-02-09T18:32:03.162Z,7.67
2019-02-09T18:34:33.403Z,7.62
2019-02-09T18:37:03.526Z,7.67
2019-02-09T18:39:33.585Z,7.38
2019-02-09T18:42:02.813Z,7.38
2019-02-09T18:44:33.016Z,7.52
2019-02-09T18:47:02.823Z,7.63
2019-02-09T18:49:32.817Z,7.55
2019-02-09T18:52:03.147Z,7.55
2019-02-09T18:54:33.339Z,7.43
2019-02-09T18:57:03.489Z,7.26
2019-02-09T18:59:33.650Z,7.45
2019-02-09T19:02:02.616Z,7.45
2019-02-09T19:04:32.426Z,7.34
2019-02-09T19:07:02.547Z,7.21
2019-02-09T19:09:32.615Z,7.14
2019-02-09T19:12:01.719Z,7.14
2019-02-09T19:14:32.040Z,7.09
2019-02-09T19:17:02.065Z,7.01
2019-02-09T19:19:33.121Z,6.90
2019-02-09T19:22:03.101Z,6.93
2019-02-09T19:24:34.167Z,6.94
2019-02-09T19:27:04.148Z,7.02
2019-02-09T19:29:33.823Z,6.92
2019-02-09T19:32:03.841Z,6.99
2019-02-09T19:34:33.994Z,7.20
2019-02-09T19:37:04.046Z,7.26
2019-02-09T19:39:34.331Z,7.29
2019-02-09T19:42:06.318Z,7.32
2019-02-09T19:44:36.363Z,7.22
2019-02-09T19:47:08.016Z,7.06
2019-02-09T19:49:38.308Z,6.94
2019-02-09T19:52:08.472Z,6.99
2019-02-09T19:54:38.523Z,6.67
2019-02-09T19:57:08.339Z,6.72
2019-02-09T19:59:38.308Z,6.72
2019-02-09T20:02:08.193Z,6.73
2019-02-09T20:04:38.075Z,6.69
2019-02-09T20:07:07.752Z,6.53
2019-02-09T20:09:38.162Z,6.40
2019-02-09T20:12:07.639Z,6.26
2019-02-09T20:14:37.566Z,6.27
2019-02-09T20:17:07.638Z,6.43
2019-02-09T20:19:36.735Z,6.43
2019-02-09T20:24:50.496Z,6.74
2019-02-09T20:27:20.683Z,6.95
2019-02-09T20:29:50.670Z,6.95
2019-02-09T20:32:21.607Z,6.65
2019-02-09T20:34:50.777Z,6.55
2019-02-09T20:37:21.121Z,6.34
2019-02-09T20:39:51.169Z,6.07
2019-02-09T20:42:21.328Z,5.81
2019-02-09T20:44:51.377Z,5.68
2019-02-09T20:47:21.324Z,5.78
2019-02-09T20:49:51.032Z,5.84
2019-02-09T20:52:21.338Z,5.81
2019-02-09T20:54:52.303Z,5.88
2019-02-09T20:57:22.464Z,6.00
2019-02-09T20:59:52.873Z,5.40
2019-02-09T21:02:22.669Z,5.40
2019-02-09T21:04:52.564Z,5.05
2019-02-09T21:07:24.519Z,5.23
2019-02-09T21:09:54.445Z,5.23
2019-02-09T21:12:24.316Z,4.89
2019-02-09T21:14:54.306Z,4.75
2019-02-09T21:17:24.489Z,4.71
2019-02-09T21:19:54.556Z,4.62
2019-02-09T21:22:23.512Z,4.62
2019-02-09T21:24:53.530Z,4.52
2019-02-09T21:27:23.308Z,4.28
2019-02-09T21:29:53.143Z,4.28
2019-02-09T21:32:23.574Z,4.33
2019-02-09T21:34:52.506Z,4.27
2019-02-09T21:37:22.398Z,4.20
2019-02-09T21:39:52.645Z,4.20
2019-02-09T21:42:21.759Z,4.16
2019-02-09T21:44:51.569Z,4.21
2019-02-09T21:47:20.635Z,4.21
2019-02-09T21:49:49.955Z,4.32
2019-02-09T21:52:19.964Z,4.41
2019-02-09T21:54:49.834Z,4.45
2019-02-09T21:57:19.846Z,4.51
2019-02-09T21:59:51.145Z,4.45
2019-02-09T22:02:21.009Z,4.36
2019-02-09T22:04:50.827Z,4.39
2019-02-09T22:07:21.051Z,4.40
2019-02-09T22:09:51.844Z,4.40
2019-02-09T22:12:21.539Z,4.38
2019-02-09T22:14:51.628Z,4.41
2019-02-09T22:17:20.878Z,4.43
2019-02-09T22:19:51.093Z,4.40
2019-02-09T22:22:21.064Z,4.33
2019-02-09T22:24:51.092Z,4.27
2019-02-09T22:27:21.297Z,4.36
2019-02-09T22:29:51.039Z,4.23
2019-02-09T22:32:21.037Z,4.12
2019-02-09T22:34:50.835Z,4.01
2019-02-09T22:37:20.861Z,4.02
2019-02-09T22:39:50.842Z,4.06
2019-02-09T22:42:20.856Z,4.04
2019-02-09T22:44:50.682Z,4.05
2019-02-09T22:47:20.925Z,4.09
2019-02-09T22:49:50.821Z,4.17
2019-02-09T22:52:20.543Z,4.30
2019-02-09T22:54:49.726Z,4.30
2019-02-09T22:57:19.651Z,4.33
2019-02-09T22:59:48.729Z,4.36
2019-02-09T23:02:18.559Z,4.20
2019-02-09T23:05:38.267Z,4.12
2019-02-09T23:08:08.317Z,4.12
2019-02-09T23:10:38.117Z,4.01
2019-02-09T23:13:08.309Z,4.13
2019-02-09T23:15:38.323Z,3.98
2019-02-09T23:18:08.107Z,4.27
2019-02-09T23:20:38.136Z,4.15
2019-02-09T23:23:08.524Z,3.94
2019-02-09T23:25:38.634Z,3.66
2019-02-09T23:28:08.622Z,3.66
2019-02-09T23:30:38.033Z,3.62
2019-02-09T23:33:07.812Z,3.59
2019-02-09T23:35:37.695Z,3.54
2019-02-09T23:38:07.647Z,3.63
2019-02-09T23:40:36.614Z,3.63
2019-02-09T23:43:06.578Z,3.70
2019-02-09T23:45:38.377Z,3.70
2019-02-09T23:48:08.108Z,3.84
2019-02-09T23:50:37.711Z,3.91
2019-02-09T23:53:06.938Z,3.67
2019-02-09T23:55:37.050Z,3.66
2019-02-09T23:58:06.825Z,3.64
